createdAt,value
2018-12-03T00:02:01.317Z,6.30
2018-12-03T00:06:59.079Z,5.90
2018-12-03T00:09:28.065Z,6.00
2018-12-03T00:11:57.004Z,6.10
2018-12-03T00:14:25.971Z,6.40
2018-12-03T00:16:54.993Z,6.80
2018-12-03T00:19:23.969Z,6.60
2018-12-03T00:21:52.983Z,6.60
2018-12-03T00:24:22.056Z,6.60
2018-12-03T00:26:51.068Z,6.70
2018-12-03T00:29:20.074Z,6.80
2018-12-03T00:34:17.651Z,6.80
2018-12-03T00:36:46.628Z,6.80
2018-12-03T00:39:15.654Z,6.90
2018-12-03T00:46:41.843Z,6.90
2018-12-03T00:49:10.986Z,6.70
2018-12-03T00:51:39.956Z,6.80
2018-12-03T00:54:08.973Z,7.00
2018-12-03T00:56:37.963Z,6.90
2018-12-03T00:59:06.934Z,7.10
2018-12-03T01:04:05.718Z,7.20
2018-12-03T01:06:48.799Z,7.00
2018-12-03T01:09:17.805Z,6.80
2018-12-03T01:11:46.806Z,7.00
2018-12-03T01:14:15.840Z,7.10
2018-12-03T01:16:44.927Z,7.10
2018-12-03T01:19:14.010Z,7.20
2018-12-03T01:24:11.577Z,7.00
2018-12-03T01:26:40.557Z,6.90
2018-12-03T01:29:09.547Z,7.00
2018-12-03T01:36:35.730Z,7.30
2018-12-03T01:39:07.075Z,7.40
2018-12-03T01:46:34.254Z,6.80
2018-12-03T01:49:03.226Z,6.90
2018-12-03T01:51:32.204Z,6.90
2018-12-03T01:56:29.845Z,6.90
2018-12-03T01:58:58.813Z,7.10
2018-12-03T02:01:27.774Z,7.20
2018-12-03T02:06:25.384Z,7.20
2018-12-03T02:08:54.415Z,7.20
2018-12-03T02:11:23.378Z,7.00
2018-12-03T02:16:21.281Z,7.10
2018-12-03T02:18:50.270Z,7.20
2018-12-03T02:21:19.323Z,7.10
2018-12-03T02:23:48.427Z,7.20
2018-12-03T02:26:17.369Z,7.40
2018-12-03T02:28:46.357Z,7.30
2018-12-03T02:31:15.329Z,7.30
2018-12-03T02:36:12.888Z,7.20
2018-12-03T02:41:10.411Z,7.30
2018-12-03T02:43:39.351Z,7.40
2018-12-03T02:46:08.343Z,7.40
2018-12-03T02:48:37.365Z,7.60
2018-12-03T02:51:06.392Z,7.40
2018-12-03T02:56:04.035Z,7.50
2018-12-03T02:58:33.077Z,7.30
2018-12-03T03:01:02.071Z,7.50
2018-12-03T03:05:59.625Z,7.50
2018-12-03T03:08:28.578Z,7.50
2018-12-03T03:10:57.619Z,7.50
2018-12-03T03:13:26.622Z,7.60
2018-12-03T03:15:55.542Z,7.80
2018-12-03T03:18:24.461Z,7.70
2018-12-03T03:20:53.559Z,7.60
2018-12-03T03:25:51.237Z,7.50
2018-12-03T03:28:20.239Z,7.60
2018-12-03T03:33:17.882Z,7.50
2018-12-03T03:38:15.506Z,7.80
2018-12-03T03:40:44.629Z,7.80
2018-12-03T03:43:13.622Z,7.80
2018-12-03T03:45:42.570Z,7.60
2018-12-03T03:48:11.617Z,7.60
2018-12-03T03:50:40.658Z,7.80
2018-12-03T03:53:09.654Z,10.60
2018-12-03T03:55:38.596Z,7.30
2018-12-03T03:58:07.587Z,7.20
2018-12-03T04:03:05.313Z,7.20
2018-12-03T04:05:34.371Z,7.30
2018-12-03T04:08:03.374Z,7.20
2018-12-03T04:10:32.337Z,7.00
2018-12-03T04:17:58.462Z,7.20
2018-12-03T04:20:27.454Z,7.00
2018-12-03T04:22:56.462Z,6.90
2018-12-03T04:25:25.778Z,6.90
2018-12-03T04:27:54.863Z,7.00
2018-12-03T04:30:23.908Z,7.10
2018-12-03T04:32:53.690Z,6.90
2018-12-03T04:35:23.920Z,6.90
2018-12-03T04:37:53.099Z,7.00
2018-12-03T04:40:22.262Z,7.30
2018-12-03T04:45:21.040Z,7.10
2018-12-03T04:47:50.562Z,7.00
2018-12-03T04:50:21.410Z,7.00
2018-12-03T04:55:19.960Z,7.00
2018-12-03T04:57:49.129Z,7.10
2018-12-03T05:00:20.000Z,7.30
2018-12-03T05:05:19.316Z,7.00
2018-12-03T05:07:48.296Z,7.00
2018-12-03T05:10:18.265Z,6.90
2018-12-03T05:12:48.498Z,6.90
2018-12-03T05:15:17.525Z,6.90
2018-12-03T05:17:46.477Z,6.70
2018-12-03T05:25:18.924Z,6.80
2018-12-03T05:32:41.845Z,6.90
2018-12-03T05:42:40.294Z,7.20
2018-12-03T05:47:38.368Z,6.90
2018-12-03T05:52:39.434Z,7.10
2018-12-03T05:57:37.814Z,7.00
2018-12-03T06:00:10.576Z,7.20
2018-12-03T06:02:39.606Z,7.10
2018-12-03T06:05:09.662Z,7.00
2018-12-03T06:07:38.653Z,7.10
2018-12-03T06:10:12.324Z,7.30
2018-12-03T06:12:41.402Z,7.00
2018-12-03T06:15:15.496Z,7.40
2018-12-03T06:17:44.656Z,7.20
2018-12-03T06:20:16.526Z,7.50
2018-12-03T06:22:46.025Z,7.30
2018-12-03T06:25:17.342Z,7.40
2018-12-03T06:27:46.337Z,7.40
2018-12-03T06:30:16.592Z,7.20
2018-12-03T06:32:45.704Z,7.00
2018-12-03T06:35:15.430Z,7.20
2018-12-03T06:40:15.285Z,7.00
2018-12-03T06:42:44.422Z,6.80
2018-12-03T06:50:13.021Z,7.10
2018-12-03T06:52:42.130Z,7.20
2018-12-03T06:57:40.066Z,7.10
2018-12-03T07:05:10.207Z,7.10
2018-12-03T07:07:39.526Z,7.10
2018-12-03T07:10:13.421Z,7.30
2018-12-03T07:12:42.727Z,7.30
2018-12-03T07:15:14.385Z,7.30
2018-12-03T07:17:43.440Z,7.30
2018-12-03T07:20:13.193Z,7.20
2018-12-03T07:22:42.195Z,7.50
2018-12-03T07:25:11.913Z,7.40
2018-12-03T07:27:41.025Z,7.50
2018-12-03T07:30:16.794Z,7.60
2018-12-03T07:32:47.251Z,7.60
2018-12-03T07:35:16.209Z,7.50
2018-12-03T07:37:45.173Z,7.30
2018-12-03T07:40:19.752Z,7.00
2018-12-03T07:42:48.849Z,7.00
2018-12-03T07:45:19.851Z,6.90
2018-12-03T07:47:48.994Z,7.30
2018-12-03T07:52:47.375Z,7.00
2018-12-03T07:55:18.671Z,7.10
2018-12-03T07:57:58.294Z,7.00
2018-12-03T08:00:30.987Z,6.90
2018-12-03T08:07:57.479Z,6.90
2018-12-03T08:12:55.307Z,7.50
2018-12-03T08:15:24.302Z,7.40
2018-12-03T08:17:56.223Z,7.30
2018-12-03T08:20:27.413Z,7.40
2018-12-03T08:22:58.905Z,7.70
2018-12-03T08:25:27.874Z,8.00
2018-12-03T08:30:25.481Z,8.20
2018-12-03T08:32:54.428Z,8.40
2018-12-03T08:35:23.451Z,8.40
2018-12-03T08:37:52.402Z,8.40
2018-12-03T08:40:21.412Z,8.40
2018-12-03T08:42:52.572Z,8.40
2018-12-03T08:45:22.596Z,8.40
2018-12-03T08:47:52.014Z,8.50
2018-12-03T08:50:24.989Z,8.70
2018-12-03T08:52:54.700Z,8.70
2018-12-03T08:55:23.666Z,8.80
2018-12-03T08:57:52.634Z,8.80
2018-12-03T09:00:23.939Z,8.70
2018-12-03T09:02:57.047Z,8.70
2018-12-03T09:05:27.760Z,8.80
2018-12-03T09:07:56.765Z,9.00
2018-12-03T09:10:25.812Z,9.10
2018-12-03T09:12:54.928Z,9.20
2018-12-03T09:15:24.186Z,9.20
2018-12-03T09:17:53.168Z,9.10
2018-12-03T09:20:22.136Z,9.10
2018-12-03T09:22:51.087Z,9.10
2018-12-03T09:25:24.166Z,9.10
2018-12-03T09:27:53.197Z,9.30
2018-12-03T09:32:51.039Z,9.30
2018-12-03T09:37:48.600Z,9.60
2018-12-03T09:40:20.418Z,9.60
2018-12-03T09:42:49.532Z,9.60
2018-12-03T09:45:19.096Z,9.80
2018-12-03T09:47:48.704Z,9.80
2018-12-03T09:50:19.886Z,9.80
2018-12-03T09:52:49.172Z,9.60
2018-12-03T09:55:26.386Z,9.70
2018-12-03T09:57:59.510Z,9.70
2018-12-03T10:00:28.530Z,10.00
2018-12-03T10:02:59.307Z,9.90
2018-12-03T10:07:59.055Z,10.10
2018-12-03T10:10:28.103Z,10.10
2018-12-03T10:12:57.205Z,10.30
2018-12-03T10:15:28.151Z,10.40
2018-12-03T10:20:26.454Z,10.20
2018-12-03T10:22:55.457Z,9.90
2018-12-03T10:25:24.439Z,10.40
2018-12-03T10:28:00.151Z,10.70
2018-12-03T10:30:29.334Z,11.10
2018-12-03T10:32:58.355Z,11.10
2018-12-03T10:35:34.028Z,11.50
2018-12-03T10:38:08.872Z,11.10
2018-12-03T10:40:41.374Z,11.20
2018-12-03T10:43:11.381Z,11.10
2018-12-03T10:45:40.465Z,11.40
2018-12-03T10:48:09.520Z,11.10
2018-12-03T10:50:38.539Z,11.10
2018-12-03T10:53:07.577Z,11.60
2018-12-03T10:55:42.630Z,10.70
2018-12-03T11:00:47.152Z,11.40
2018-12-03T11:03:21.590Z,11.10
2018-12-03T11:05:56.234Z,11.20
2018-12-03T11:08:25.311Z,11.40
2018-12-03T11:10:55.410Z,11.50
2018-12-03T11:13:24.503Z,11.40
2018-12-03T11:15:53.553Z,11.30
2018-12-03T11:18:22.744Z,11.20
2018-12-03T11:20:51.799Z,11.40
2018-12-03T11:23:22.891Z,11.60
2018-12-03T11:25:52.323Z,11.90
2018-12-03T11:28:21.535Z,11.80
2018-12-03T11:30:55.021Z,11.90
2018-12-03T11:33:27.705Z,11.70
2018-12-03T11:35:58.336Z,12.10
2018-12-03T11:39:45.276Z,11.90
2018-12-03T11:42:14.506Z,11.80
2018-12-03T11:44:43.656Z,11.90
2018-12-03T11:47:19.283Z,11.60
2018-12-03T11:49:48.373Z,11.80
2018-12-03T11:52:17.386Z,11.80
2018-12-03T11:54:46.375Z,11.90
2018-12-03T11:57:15.374Z,12.00
2018-12-03T11:59:44.443Z,12.00
2018-12-03T12:02:13.458Z,11.90
2018-12-03T12:04:42.584Z,12.10
2018-12-03T12:07:11.679Z,12.10
2018-12-03T12:09:40.737Z,12.40
2018-12-03T12:12:09.894Z,12.70
2018-12-03T12:17:07.555Z,12.30
2018-12-03T12:19:36.523Z,12.20
2018-12-03T12:22:06.103Z,12.70
2018-12-03T12:24:36.355Z,12.80
2018-12-03T12:27:04.627Z,12.30
2018-12-03T12:29:33.652Z,12.60
2018-12-03T12:32:02.699Z,12.70
2018-12-03T12:34:32.142Z,12.40
2018-12-03T12:37:01.161Z,12.60
2018-12-03T12:39:30.152Z,13.00
2018-12-03T12:41:59.205Z,13.80
2018-12-03T12:44:28.245Z,13.90
2018-12-03T12:46:57.213Z,13.20
2018-12-03T12:49:26.178Z,12.90
2018-12-03T12:51:55.128Z,13.00
2018-12-03T12:54:24.193Z,12.80
2018-12-03T12:56:53.350Z,12.90
2018-12-03T12:59:22.447Z,13.20
2018-12-03T13:01:52.453Z,13.00
2018-12-03T13:04:21.537Z,13.50
2018-12-03T13:06:50.578Z,13.30
2018-12-03T13:09:19.732Z,13.00
2018-12-03T13:11:49.129Z,13.30
2018-12-03T13:14:18.202Z,13.70
2018-12-03T13:16:47.287Z,12.70
2018-12-03T13:19:16.341Z,12.70
2018-12-03T13:21:47.401Z,12.80
2018-12-03T13:24:16.464Z,12.70
2018-12-03T13:26:50.300Z,12.60
2018-12-03T13:29:19.363Z,12.90
2018-12-03T13:31:48.358Z,13.10
2018-12-03T13:34:17.343Z,14.10
2018-12-03T13:36:46.390Z,13.20
2018-12-03T13:39:15.797Z,12.90
2018-12-03T13:41:44.839Z,12.80
2018-12-03T13:44:13.816Z,13.00
2018-12-03T13:46:43.096Z,12.80
2018-12-03T13:49:12.122Z,12.80
2018-12-03T13:51:41.435Z,12.50
2018-12-03T13:54:10.466Z,12.90
2018-12-03T13:56:39.550Z,13.00
2018-12-03T13:59:08.787Z,13.60
2018-12-03T14:01:38.373Z,13.30
2018-12-03T14:04:11.582Z,12.90
2018-12-03T14:06:45.660Z,12.60
2018-12-03T14:10:25.922Z,12.70
2018-12-03T14:13:03.307Z,13.50
2018-12-03T14:17:47.429Z,12.90
2018-12-03T14:20:16.639Z,12.10
2018-12-03T14:22:50.427Z,12.30
2018-12-03T14:25:19.421Z,12.50
2018-12-03T14:27:48.370Z,12.20
2018-12-03T14:30:17.401Z,11.90
2018-12-03T14:32:46.461Z,11.80
2018-12-03T14:35:15.556Z,11.70
2018-12-03T14:37:44.570Z,11.60
2018-12-03T14:40:13.590Z,11.40
2018-12-03T14:42:42.623Z,11.30
2018-12-03T14:47:40.792Z,11.40
2018-12-03T14:50:10.761Z,11.30
2018-12-03T14:52:39.698Z,11.30
2018-12-03T14:55:08.870Z,11.10
2018-12-03T14:57:37.815Z,11.40
2018-12-03T15:00:09.775Z,11.30
2018-12-03T15:02:40.484Z,11.20
2018-12-03T15:05:09.784Z,11.10
2018-12-03T15:07:38.771Z,11.00
2018-12-03T15:10:09.115Z,10.80
2018-12-03T15:12:38.128Z,10.70
2018-12-03T15:15:09.157Z,10.60
2018-12-03T15:20:08.177Z,10.50
2018-12-03T15:22:37.218Z,10.40
2018-12-03T15:25:08.623Z,10.50
2018-12-03T15:27:37.508Z,10.40
2018-12-03T15:30:08.970Z,10.50
2018-12-03T15:32:38.395Z,10.50
2018-12-03T15:35:09.117Z,10.40
2018-12-03T15:37:38.219Z,10.30
2018-12-03T15:40:11.943Z,10.00
2018-12-03T15:42:41.021Z,10.00
2018-12-03T15:45:11.180Z,10.00
2018-12-03T15:47:40.227Z,10.10
2018-12-03T15:50:09.308Z,10.10
2018-12-03T15:52:38.534Z,9.90
2018-12-03T15:55:08.755Z,9.80
2018-12-03T15:57:38.052Z,9.90
2018-12-03T16:00:10.499Z,10.10
2018-12-03T16:02:40.350Z,10.00
2018-12-03T16:05:13.827Z,10.00
2018-12-03T16:07:43.191Z,9.90
2018-12-03T16:10:14.217Z,9.60
2018-12-03T16:12:45.180Z,9.70
2018-12-03T16:15:14.984Z,9.80
2018-12-03T16:17:44.806Z,9.60
2018-12-03T16:20:14.110Z,9.30
2018-12-03T16:22:43.510Z,9.20
2018-12-03T16:25:13.234Z,9.20
2018-12-03T16:27:42.884Z,9.20
2018-12-03T16:30:15.984Z,9.20
2018-12-03T16:32:45.869Z,9.10
2018-12-03T16:35:15.638Z,8.90
2018-12-03T16:37:45.439Z,8.90
2018-12-03T16:40:15.254Z,8.80
2018-12-03T16:42:45.169Z,9.10
2018-12-03T16:45:15.191Z,9.40
2018-12-03T16:47:45.075Z,9.30
2018-12-03T16:50:14.931Z,9.40
2018-12-03T16:52:44.829Z,9.40
2018-12-03T16:55:14.661Z,9.40
2018-12-03T16:57:44.836Z,9.20
2018-12-03T17:00:54.181Z,9.40
2018-12-03T17:03:24.169Z,9.30
2018-12-03T17:06:00.555Z,9.10
2018-12-03T17:08:30.431Z,9.20
2018-12-03T17:11:05.402Z,9.20
2018-12-03T17:13:42.930Z,9.20
2018-12-03T17:19:36.492Z,9.20
2018-12-03T17:22:34.869Z,9.10
2018-12-03T17:27:34.924Z,9.20
2018-12-03T17:30:05.921Z,9.30
2018-12-03T17:32:35.751Z,9.20
2018-12-03T17:35:06.677Z,9.10
2018-12-03T17:37:54.420Z,9.10
2018-12-03T17:40:29.238Z,9.20
2018-12-03T17:42:59.665Z,9.20
2018-12-03T17:47:58.917Z,9.20
2018-12-03T17:52:58.653Z,9.50
2018-12-03T17:57:59.790Z,9.30
2018-12-03T18:00:34.306Z,9.30
2018-12-03T18:03:05.207Z,9.10
2018-12-03T18:05:36.595Z,9.00
2018-12-03T18:08:07.181Z,9.00
2018-12-03T18:13:06.219Z,8.90
2018-12-03T18:15:36.587Z,8.90
2018-12-03T18:18:06.536Z,8.90
2018-12-03T18:20:37.275Z,9.00
2018-12-03T18:23:07.691Z,9.00
2018-12-03T18:25:37.598Z,8.90
2018-12-03T18:28:08.924Z,8.90
2018-12-03T18:33:09.743Z,8.90
2018-12-03T18:35:39.715Z,9.00
2018-12-03T18:40:38.832Z,9.00
2018-12-03T18:43:10.826Z,8.70
2018-12-03T18:45:40.702Z,8.70
2018-12-03T18:48:12.201Z,8.70
2018-12-03T18:50:44.600Z,8.70
2018-12-03T18:55:45.505Z,8.70
2018-12-03T18:58:19.066Z,8.90
2018-12-03T19:00:49.496Z,9.00
2018-12-03T19:03:19.376Z,9.00
2018-12-03T19:05:49.395Z,9.10
2018-12-03T19:08:20.011Z,9.20
2018-12-03T19:13:19.802Z,9.30
2018-12-03T19:15:56.171Z,9.20
2018-12-03T19:18:27.082Z,9.10
2018-12-03T19:23:26.236Z,8.90
2018-12-03T19:25:56.131Z,8.70
2018-12-03T19:28:26.664Z,9.00
2018-12-03T19:30:56.610Z,8.90
2018-12-03T19:33:31.099Z,8.80
2018-12-03T19:36:21.625Z,8.80
2018-12-03T19:38:51.466Z,8.60
2018-12-03T19:43:52.765Z,8.90
2018-12-03T19:46:22.646Z,8.90
2018-12-03T19:48:52.702Z,8.90
2018-12-03T19:51:22.887Z,8.70
2018-12-03T19:53:54.108Z,8.90
2018-12-03T19:56:24.340Z,8.80
2018-12-03T19:58:59.899Z,8.90
2018-12-03T20:01:29.905Z,8.80
2018-12-03T20:03:59.885Z,8.90
2018-12-03T20:06:31.037Z,8.80
2018-12-03T20:09:02.587Z,8.90
2018-12-03T20:11:33.555Z,8.80
2018-12-03T20:14:03.490Z,8.80
2018-12-03T20:16:36.154Z,8.60
2018-12-03T20:19:05.998Z,8.80
2018-12-03T20:21:36.824Z,8.80
2018-12-03T20:26:44.620Z,8.60
2018-12-03T20:29:22.553Z,8.50
2018-12-03T20:32:16.045Z,8.50
2018-12-03T20:35:00.106Z,8.70
2018-12-03T20:37:41.520Z,8.90
2018-12-03T20:40:21.956Z,8.70
2018-12-03T20:42:58.458Z,8.90
2018-12-03T20:48:01.910Z,9.00
2018-12-03T20:51:04.702Z,9.20
2018-12-03T20:53:39.829Z,9.30
2018-12-03T20:56:09.797Z,9.20
2018-12-03T20:58:39.670Z,9.20
2018-12-03T21:01:09.500Z,9.00
2018-12-03T21:03:39.892Z,9.40
2018-12-03T21:06:09.732Z,9.40
2018-12-03T21:11:08.968Z,9.40
2018-12-03T21:16:10.202Z,9.20
2018-12-03T21:18:40.154Z,9.20
2018-12-03T21:21:11.178Z,9.10
2018-12-03T21:23:41.007Z,9.20
2018-12-03T21:26:10.849Z,9.00
2018-12-03T21:28:40.892Z,8.80
2018-12-03T21:31:10.799Z,9.00
2018-12-03T21:33:40.639Z,9.00
2018-12-03T21:38:39.800Z,8.90
2018-12-03T21:41:09.666Z,8.60
2018-12-03T21:43:39.465Z,8.50
2018-12-03T21:48:38.563Z,8.70
2018-12-03T21:51:08.319Z,9.10
2018-12-03T21:53:38.100Z,8.90
2018-12-03T21:58:37.027Z,8.80
2018-12-03T22:01:06.773Z,8.80
2018-12-03T22:03:36.589Z,8.80
2018-12-03T22:06:07.533Z,9.00
2018-12-03T22:08:37.324Z,8.80
2018-12-03T22:11:07.237Z,8.60
2018-12-03T22:13:36.927Z,8.70
2018-12-03T22:16:06.627Z,8.80
2018-12-03T22:18:36.375Z,8.80
2018-12-03T22:21:06.108Z,8.80
2018-12-03T22:23:36.802Z,8.80
2018-12-03T22:26:06.431Z,8.90
2018-12-03T22:28:35.459Z,9.10
2018-12-03T22:31:04.474Z,8.90
2018-12-03T22:33:34.631Z,8.80
2018-12-03T22:36:03.971Z,8.60
2018-12-03T22:38:33.032Z,8.80
2018-12-03T22:41:01.999Z,8.80
2018-12-03T22:43:30.971Z,8.90
2018-12-03T22:45:59.909Z,8.80
2018-12-03T22:48:28.884Z,9.00
2018-12-03T22:50:57.798Z,9.00
2018-12-03T22:53:26.673Z,9.00
2018-12-03T22:55:55.599Z,8.70
2018-12-03T22:58:24.559Z,8.70
2018-12-03T23:03:37.242Z,8.70
2018-12-03T23:06:06.210Z,8.80
2018-12-03T23:08:35.175Z,9.00
2018-12-03T23:11:04.180Z,9.00
2018-12-03T23:13:33.173Z,8.90
2018-12-03T23:16:02.163Z,8.90
2018-12-03T23:18:31.105Z,8.80
2018-12-03T23:21:00.074Z,8.70
2018-12-03T23:23:28.984Z,8.80
2018-12-03T23:25:57.951Z,8.90
2018-12-03T23:28:26.857Z,8.90
2018-12-03T23:30:55.768Z,8.90
2018-12-03T23:33:24.711Z,9.00
2018-12-03T23:35:53.653Z,9.10
2018-12-03T23:38:22.670Z,9.10
2018-12-03T23:40:51.628Z,9.10
2018-12-03T23:43:20.579Z,9.00
2018-12-03T23:48:18.111Z,9.20
2018-12-03T23:50:47.181Z,9.30
2018-12-03T23:53:16.148Z,9.00
2018-12-03T23:55:45.097Z,8.80
2018-12-03T23:58:14.065Z,8.50
